createdAt,value
2018-07-31T00:00:19.681Z,4.50
2018-07-31T00:05:24.393Z,4.17
2018-07-31T00:10:29.168Z,4.70
2018-07-31T00:15:33.856Z,4.47
2018-07-31T00:20:38.563Z,4.90
2018-07-31T00:25:43.216Z,5.13
2018-07-31T00:30:47.907Z,4.57
2018-07-31T00:35:52.642Z,4.90
2018-07-31T00:40:56.980Z,4.67
2018-07-31T00:46:01.656Z,4.37
2018-07-31T00:51:06.347Z,5.00
2018-07-31T00:56:11.220Z,5.17
2018-07-31T01:01:15.933Z,4.47
2018-07-31T01:06:25.855Z,4.53
2018-07-31T01:11:30.573Z,4.60
2018-07-31T01:16:35.243Z,4.60
2018-07-31T01:21:40.702Z,4.50
2018-07-31T01:26:45.382Z,4.33
2018-07-31T01:31:50.114Z,5.27
2018-07-31T01:36:54.954Z,5.20
2018-07-31T01:41:59.607Z,4.97
2018-07-31T01:47:04.206Z,5.13
2018-07-31T01:52:08.919Z,5.30
2018-07-31T01:57:13.679Z,5.40
2018-07-31T02:02:18.407Z,5.53
2018-07-31T02:07:22.084Z,5.10
2018-07-31T02:12:26.776Z,5.17
2018-07-31T02:17:31.462Z,5.30
2018-07-31T02:22:36.148Z,5.07
2018-07-31T02:27:40.951Z,5.80
2018-07-31T02:32:45.699Z,5.37
2018-07-31T02:37:50.704Z,5.17
2018-07-31T02:42:55.413Z,5.67
2018-07-31T02:48:00.081Z,5.47
2018-07-31T02:53:04.736Z,5.20
2018-07-31T02:58:09.504Z,5.20
2018-07-31T03:03:14.140Z,5.63
2018-07-31T03:08:18.931Z,5.30
2018-07-31T03:13:23.612Z,5.60
2018-07-31T03:18:28.241Z,5.40
2018-07-31T03:23:32.870Z,5.53
2018-07-31T03:28:37.611Z,5.77
2018-07-31T03:33:42.260Z,5.53
2018-07-31T03:38:46.924Z,5.77
2018-07-31T03:43:51.551Z,5.53
2018-07-31T03:48:56.278Z,5.13
2018-07-31T03:54:01.029Z,5.57
2018-07-31T03:59:06.017Z,6.13
2018-07-31T04:04:10.959Z,5.67
2018-07-31T04:09:15.663Z,5.43
2018-07-31T04:14:20.295Z,5.77
2018-07-31T04:19:25.098Z,5.30
2018-07-31T04:24:29.887Z,5.10
2018-07-31T04:29:34.698Z,4.87
2018-07-31T04:34:39.455Z,5.17
2018-07-31T04:39:44.196Z,4.90
2018-07-31T04:44:48.868Z,5.07
2018-07-31T04:49:53.471Z,5.30
2018-07-31T04:54:58.137Z,4.77
2018-07-31T05:00:03.258Z,4.83
2018-07-31T05:05:08.017Z,5.13
2018-07-31T05:10:14.002Z,5.03
2018-07-31T05:15:18.696Z,5.77
2018-07-31T05:20:23.329Z,5.20
2018-07-31T05:25:28.124Z,5.13
2018-07-31T05:30:32.816Z,5.20
2018-07-31T05:35:37.449Z,5.00
2018-07-31T05:40:43.219Z,5.30
2018-07-31T05:45:48.778Z,5.00
2018-07-31T05:50:53.615Z,5.33
2018-07-31T05:55:58.349Z,5.30
2018-07-31T06:01:03.146Z,5.43
2018-07-31T06:06:08.041Z,6.13
2018-07-31T06:11:12.801Z,5.60
2018-07-31T06:16:17.616Z,6.63
2018-07-31T06:21:22.324Z,5.90
2018-07-31T06:26:27.037Z,6.03
2018-07-31T06:31:31.757Z,5.80
2018-07-31T06:36:36.535Z,5.93
2018-07-31T06:41:41.204Z,6.10
2018-07-31T06:46:45.962Z,6.57
2018-07-31T06:51:50.669Z,6.30
2018-07-31T06:56:55.330Z,6.70
2018-07-31T07:02:00.048Z,5.83
2018-07-31T07:07:04.698Z,6.03
2018-07-31T07:12:09.496Z,6.50
2018-07-31T07:17:14.300Z,6.03
2018-07-31T07:22:19.007Z,6.20
2018-07-31T07:27:23.780Z,5.90
2018-07-31T07:32:28.628Z,5.67
2018-07-31T07:37:33.344Z,5.33
2018-07-31T07:42:37.675Z,5.50
2018-07-31T07:47:42.516Z,5.83
2018-07-31T07:52:47.390Z,5.30
2018-07-31T07:57:52.221Z,5.33
2018-07-31T08:02:56.893Z,5.73
2018-07-31T08:08:01.624Z,5.30
2018-07-31T08:13:06.274Z,5.73
2018-07-31T08:18:10.962Z,5.37
2018-07-31T08:23:15.847Z,5.33
2018-07-31T08:28:20.605Z,5.23
2018-07-31T08:33:25.295Z,5.40
2018-07-31T08:38:30.024Z,5.13
2018-07-31T08:43:34.744Z,4.77
2018-07-31T08:48:39.489Z,4.70
2018-07-31T08:53:43.838Z,5.30
2018-07-31T08:58:48.496Z,4.73
2018-07-31T09:03:53.294Z,5.13
2018-07-31T09:08:58.271Z,5.07
2018-07-31T09:14:03.031Z,5.53
2018-07-31T09:19:07.744Z,5.80
2018-07-31T09:24:12.549Z,5.17
2018-07-31T09:29:17.931Z,5.20
2018-07-31T09:34:22.568Z,5.20
2018-07-31T09:39:27.358Z,5.10
2018-07-31T09:44:32.115Z,5.33
2018-07-31T09:49:36.783Z,4.77
2018-07-31T09:54:41.459Z,4.83
2018-07-31T09:59:46.171Z,5.13
2018-07-31T10:04:50.952Z,4.90
2018-07-31T10:09:55.873Z,4.78
2018-07-31T10:15:00.559Z,4.00
2018-07-31T10:20:05.508Z,5.17
2018-07-31T10:25:10.356Z,4.95
2018-07-31T10:30:15.045Z,4.97
2018-07-31T10:35:19.771Z,4.80
2018-07-31T10:40:24.553Z,5.40
2018-07-31T10:45:29.213Z,5.10
2018-07-31T10:50:33.896Z,5.30
2018-07-31T10:55:38.635Z,4.90
2018-07-31T11:00:43.390Z,4.70
2018-07-31T11:05:48.055Z,5.45
2018-07-31T11:10:52.777Z,4.67
2018-07-31T11:15:57.508Z,4.22
2018-07-31T11:21:02.318Z,4.47
2018-07-31T11:26:07.348Z,4.58
2018-07-31T11:31:12.085Z,4.53
2018-07-31T11:36:17.012Z,5.20
2018-07-31T11:41:21.828Z,4.75
2018-07-31T11:46:26.570Z,4.42
2018-07-31T11:51:31.316Z,4.20
2018-07-31T11:56:36.084Z,4.17
2018-07-31T12:01:40.780Z,4.37
2018-07-31T12:06:45.607Z,4.13
2018-07-31T12:11:50.311Z,4.20
2018-07-31T12:16:55.020Z,4.20
2018-07-31T12:21:59.712Z,4.47
2018-07-31T12:27:04.600Z,4.15
2018-07-31T12:32:09.368Z,5.10
2018-07-31T12:37:14.182Z,3.85
2018-07-31T12:42:18.804Z,4.60
2018-07-31T12:47:23.598Z,4.20
2018-07-31T12:52:28.644Z,4.42
2018-07-31T12:57:33.462Z,3.95
2018-07-31T13:02:38.169Z,4.20
2018-07-31T13:07:48.398Z,4.10
2018-07-31T13:12:53.102Z,4.65
2018-07-31T13:17:57.896Z,4.58
2018-07-31T13:23:02.572Z,4.40
2018-07-31T13:28:07.387Z,4.22
2018-07-31T13:33:12.058Z,3.92
2018-07-31T13:38:16.832Z,4.20
2018-07-31T13:43:21.466Z,4.37
2018-07-31T13:48:26.055Z,4.20
2018-07-31T13:53:30.743Z,4.05
2018-07-31T13:58:35.500Z,4.08
2018-07-31T14:03:40.236Z,4.53
2018-07-31T14:08:44.925Z,4.42
2018-07-31T14:13:49.678Z,4.25
2018-07-31T14:18:54.944Z,5.03
2018-07-31T14:23:59.609Z,4.22
2018-07-31T14:29:04.348Z,4.70
2018-07-31T14:34:09.036Z,4.58
2018-07-31T14:39:13.879Z,4.60
2018-07-31T14:44:18.521Z,4.25
2018-07-31T14:49:23.692Z,4.62
2018-07-31T14:54:28.376Z,4.35
2018-07-31T14:59:33.060Z,4.35
2018-07-31T15:04:37.790Z,4.53
2018-07-31T15:09:42.590Z,4.47
2018-07-31T15:14:47.318Z,4.30
2018-07-31T15:19:52.314Z,4.00
2018-07-31T15:24:56.986Z,4.10
2018-07-31T15:30:01.692Z,4.35
2018-07-31T15:35:06.601Z,5.25
2018-07-31T15:40:11.311Z,4.50
2018-07-31T15:45:15.999Z,4.75
2018-07-31T15:50:20.629Z,4.25
2018-07-31T15:55:25.295Z,4.47
2018-07-31T16:00:30.023Z,4.40
2018-07-31T16:05:34.785Z,4.40
2018-07-31T16:10:39.445Z,4.55
2018-07-31T16:15:44.254Z,4.37
2018-07-31T16:20:48.949Z,4.50
2018-07-31T16:25:53.740Z,4.72
2018-07-31T16:30:58.420Z,4.20
2018-07-31T16:36:03.163Z,4.78
2018-07-31T16:41:08.495Z,4.80
2018-07-31T16:46:13.565Z,4.37
2018-07-31T16:51:18.555Z,4.55
2018-07-31T16:56:23.412Z,4.87
2018-07-31T17:01:28.081Z,4.50
2018-07-31T17:06:32.759Z,4.10
2018-07-31T17:11:37.416Z,4.42
2018-07-31T17:16:42.140Z,4.12
2018-07-31T17:21:46.993Z,4.33
2018-07-31T17:26:51.669Z,4.90
2018-07-31T17:31:56.715Z,4.85
2018-07-31T17:37:01.516Z,4.37
2018-07-31T17:42:06.316Z,4.10
2018-07-31T17:47:11.428Z,4.13
2018-07-31T17:52:16.567Z,4.23
2018-07-31T17:57:21.345Z,3.87
2018-07-31T18:02:26.105Z,3.80
2018-07-31T18:07:30.892Z,4.30
2018-07-31T18:12:35.828Z,4.20
2018-07-31T18:17:40.602Z,3.43
2018-07-31T18:22:45.286Z,4.17
2018-07-31T18:27:50.153Z,3.40
2018-07-31T18:32:56.328Z,3.87
2018-07-31T18:38:01.290Z,4.10
2018-07-31T18:43:06.107Z,4.13
2018-07-31T18:48:10.805Z,4.00
2018-07-31T18:53:15.614Z,4.43
2018-07-31T18:58:20.393Z,3.80
2018-07-31T19:03:25.867Z,4.37
2018-07-31T19:08:31.535Z,3.60
2018-07-31T19:13:36.675Z,3.57
2018-07-31T19:18:41.694Z,3.93
2018-07-31T19:23:46.715Z,3.90
2018-07-31T19:28:51.626Z,3.80
2018-07-31T19:33:56.481Z,3.90
2018-07-31T19:39:01.138Z,3.57
2018-07-31T19:44:06.201Z,4.23
2018-07-31T19:49:11.050Z,3.53
2018-07-31T19:54:15.815Z,3.80
2018-07-31T19:59:20.693Z,4.07
2018-07-31T20:04:25.690Z,3.70
2018-07-31T20:09:30.791Z,4.10
2018-07-31T20:14:35.530Z,3.97
2018-07-31T20:19:40.283Z,4.00
2018-07-31T20:24:45.022Z,3.70
2018-07-31T20:29:49.910Z,3.53
2018-07-31T20:34:54.886Z,3.57
2018-07-31T20:39:59.588Z,4.00
2018-07-31T20:45:04.551Z,3.83
2018-07-31T20:50:09.433Z,3.80
2018-07-31T20:55:14.244Z,4.20
2018-07-31T21:00:19.005Z,3.87
2018-07-31T21:05:23.725Z,4.30
2018-07-31T21:10:28.494Z,3.83
2018-07-31T21:15:33.239Z,4.23
2018-07-31T21:20:37.977Z,3.90
2018-07-31T21:25:42.706Z,4.10
2018-07-31T21:30:47.463Z,3.93
2018-07-31T21:35:52.193Z,4.20
2018-07-31T21:40:57.004Z,4.00
2018-07-31T21:46:01.877Z,4.17
2018-07-31T21:51:06.656Z,4.17
2018-07-31T21:56:11.415Z,4.53
2018-07-31T22:01:16.380Z,4.30
2018-07-31T22:06:21.269Z,4.10
2018-07-31T22:11:26.038Z,4.00
2018-07-31T22:16:30.680Z,4.20
2018-07-31T22:21:35.366Z,4.63
2018-07-31T22:26:40.205Z,4.10
2018-07-31T22:31:45.045Z,4.40
2018-07-31T22:36:49.377Z,4.53
2018-07-31T22:41:54.176Z,4.63
2018-07-31T22:47:11.709Z,4.77
2018-07-31T22:52:16.405Z,4.80
2018-07-31T22:57:21.082Z,4.40
2018-07-31T23:02:25.912Z,4.10
2018-07-31T23:07:30.709Z,4.93
2018-07-31T23:12:35.566Z,4.93
2018-07-31T23:17:40.271Z,5.80
2018-07-31T23:22:48.680Z,5.57
2018-07-31T23:27:53.403Z,5.47
2018-07-31T23:32:58.091Z,5.00
2018-07-31T23:38:02.736Z,5.23
2018-07-31T23:43:07.420Z,4.90
2018-07-31T23:48:12.076Z,6.07
2018-07-31T23:53:16.719Z,5.93
2018-07-31T23:58:21.372Z,5.87
